createdAt,value
2019-01-02T00:02:31.918Z,4.67
2019-01-02T00:06:34.322Z,4.90
2019-01-02T00:10:36.777Z,5.50
2019-01-02T00:14:39.151Z,5.03
2019-01-02T00:18:41.542Z,9.33
2019-01-02T00:22:43.901Z,7.53
2019-01-02T00:26:46.417Z,6.13
2019-01-02T00:30:48.772Z,5.97
2019-01-02T00:34:51.082Z,5.97
2019-01-02T00:38:54.262Z,5.73
2019-01-02T00:42:56.678Z,5.97
2019-01-02T00:46:59.027Z,5.70
2019-01-02T00:51:01.325Z,5.83
2019-01-02T00:55:04.397Z,7.53
2019-01-02T00:59:06.684Z,6.07
2019-01-02T01:03:09.038Z,5.73
2019-01-02T01:07:13.012Z,6.17
2019-01-02T01:11:15.334Z,5.90
2019-01-02T01:15:17.716Z,6.33
2019-01-02T01:19:20.095Z,5.93
2019-01-02T01:23:22.461Z,4.47
2019-01-02T01:27:24.826Z,5.67
2019-01-02T01:31:27.168Z,6.67
2019-01-02T01:35:29.529Z,5.90
2019-01-02T01:39:31.888Z,5.10
2019-01-02T01:43:34.210Z,6.07
2019-01-02T01:47:36.675Z,5.33
2019-01-02T01:51:39.049Z,7.43
2019-01-02T01:55:41.457Z,5.90
2019-01-02T01:59:43.939Z,5.90
2019-01-02T02:03:46.288Z,6.90
2019-01-02T02:07:48.639Z,5.53
2019-01-02T02:11:50.985Z,7.60
2019-01-02T02:15:53.369Z,6.73
2019-01-02T02:19:55.695Z,6.47
2019-01-02T02:23:58.031Z,7.17
2019-01-02T02:28:00.446Z,5.67
2019-01-02T02:32:02.836Z,7.57
2019-01-02T02:36:05.229Z,5.40
2019-01-02T02:40:08.949Z,7.90
2019-01-02T02:44:11.300Z,7.00
2019-01-02T02:48:13.676Z,6.73
2019-01-02T02:52:16.040Z,7.03
2019-01-02T02:56:18.390Z,7.40
2019-01-02T03:00:20.784Z,7.27
2019-01-02T03:04:23.114Z,6.37
2019-01-02T03:08:25.448Z,7.30
2019-01-02T03:12:27.799Z,6.33
2019-01-02T03:16:30.169Z,6.53
2019-01-02T03:20:32.554Z,8.07
2019-01-02T03:24:34.886Z,5.73
2019-01-02T03:28:37.255Z,7.70
2019-01-02T03:32:39.647Z,6.70
2019-01-02T03:36:42.044Z,6.97
2019-01-02T03:40:44.400Z,7.67
2019-01-02T03:44:46.747Z,6.80
2019-01-02T03:48:49.123Z,6.80
2019-01-02T03:52:51.520Z,7.80
2019-01-02T03:56:53.872Z,5.77
2019-01-02T04:00:56.214Z,6.70
2019-01-02T04:04:59.117Z,4.77
2019-01-02T04:09:01.493Z,6.33
2019-01-02T04:13:03.940Z,5.97
2019-01-02T04:17:06.279Z,6.37
2019-01-02T04:21:08.617Z,6.77
2019-01-02T04:25:10.970Z,5.87
2019-01-02T04:29:13.344Z,6.37
2019-01-02T04:33:15.707Z,5.70
2019-01-02T04:37:18.052Z,6.40
2019-01-02T04:41:20.435Z,8.00
2019-01-02T04:45:22.771Z,8.00
2019-01-02T04:49:25.163Z,6.53
2019-01-02T04:53:27.535Z,7.93
2019-01-02T04:57:29.820Z,9.00
2019-01-02T05:01:32.143Z,6.53
2019-01-02T05:05:34.454Z,6.93
2019-01-02T05:09:36.792Z,7.90
2019-01-02T05:13:39.169Z,10.57
2019-01-02T05:17:41.414Z,6.83
2019-01-02T05:21:43.765Z,8.30
2019-01-02T05:25:46.128Z,7.90
2019-01-02T05:29:48.492Z,6.83
2019-01-02T05:33:50.856Z,7.70
2019-01-02T05:37:54.005Z,10.83
2019-01-02T05:41:55.589Z,6.47
2019-01-02T05:45:57.959Z,9.03
2019-01-02T05:50:00.333Z,7.67
2019-01-02T05:54:02.679Z,8.57
2019-01-02T05:58:05.054Z,8.87
2019-01-02T06:02:07.438Z,7.90
2019-01-02T06:06:09.788Z,10.83
2019-01-02T06:10:13.892Z,7.43
2019-01-02T06:14:16.268Z,7.57
2019-01-02T06:18:18.608Z,9.13
2019-01-02T06:22:20.990Z,8.10
2019-01-02T06:26:23.338Z,7.80
2019-01-02T06:30:25.698Z,8.53
2019-01-02T06:34:28.020Z,7.33
2019-01-02T06:38:30.370Z,8.93
2019-01-02T06:42:32.742Z,9.07
2019-01-02T06:46:35.103Z,7.97
2019-01-02T06:50:37.414Z,9.13
2019-01-02T06:54:39.762Z,10.20
2019-01-02T06:58:42.130Z,11.70
2019-01-02T07:02:44.541Z,8.87
2019-01-02T07:06:46.879Z,8.93
2019-01-02T07:10:49.181Z,10.20
2019-01-02T07:14:51.568Z,10.43
2019-01-02T07:18:53.913Z,8.87
2019-01-02T07:22:56.263Z,12.73
2019-01-02T07:26:58.638Z,10.73
2019-01-02T07:31:00.957Z,10.83
2019-01-02T07:35:23.502Z,11.50
2019-01-02T07:39:41.780Z,11.33
2019-01-02T07:43:56.239Z,9.83
2019-01-02T07:50:18.912Z,12.27
2019-01-02T07:54:39.432Z,11.17
2019-01-02T07:58:57.681Z,11.37
2019-01-02T08:07:19.448Z,10.33
2019-01-02T08:12:31.767Z,9.70
2019-01-02T08:17:18.499Z,10.83
2019-01-02T08:21:36.933Z,10.30
2019-01-02T08:27:57.871Z,9.83
2019-01-02T08:32:25.217Z,10.07
2019-01-02T08:38:00.762Z,7.67
2019-01-02T08:42:21.298Z,8.17
2019-01-02T08:47:37.303Z,8.17
2019-01-02T08:52:08.689Z,8.37
2019-01-02T08:58:27.774Z,7.27
2019-01-02T09:03:07.438Z,6.43
2019-01-02T09:07:26.766Z,15.43
2019-01-02T09:11:47.046Z,7.70
2019-01-02T09:18:03.905Z,7.03
2019-01-02T09:22:41.958Z,7.83
2019-01-02T09:27:00.542Z,6.80
2019-01-02T09:31:31.350Z,6.50
2019-01-02T09:35:45.763Z,6.57
2019-01-02T09:40:06.017Z,7.47
2019-01-02T09:46:22.524Z,6.90
2019-01-02T09:50:43.835Z,7.33
2019-01-02T09:55:08.302Z,7.70
2019-01-02T09:59:37.525Z,7.90
2019-01-02T10:03:53.794Z,9.53
2019-01-02T10:08:12.246Z,9.03
2019-01-02T10:12:36.720Z,6.33
2019-01-02T10:16:51.751Z,7.53
2019-01-02T10:21:09.775Z,8.00
2019-01-02T10:25:25.857Z,6.97
2019-01-02T10:30:42.497Z,7.80
2019-01-02T10:35:56.782Z,9.63
2019-01-02T10:40:21.442Z,10.33
2019-01-02T10:45:39.671Z,7.73
2019-01-02T10:52:00.839Z,8.80
2019-01-02T10:56:29.863Z,5.80
2019-01-02T11:01:44.566Z,6.03
2019-01-02T11:05:58.518Z,7.37
2019-01-02T11:10:21.765Z,6.17
2019-01-02T11:15:20.666Z,5.03
2019-01-02T11:21:46.801Z,6.23
2019-01-02T11:26:08.158Z,4.90
2019-01-02T11:30:39.343Z,4.87
2019-01-02T11:34:51.838Z,4.23
2019-01-02T11:39:35.533Z,5.90
2019-01-02T11:45:18.848Z,3.73
2019-01-02T11:49:21.299Z,4.97
2019-01-02T11:53:23.733Z,6.30
2019-01-02T11:57:26.172Z,4.30
2019-01-02T12:01:29.388Z,4.53
2019-01-02T12:05:31.794Z,6.47
2019-01-02T12:09:34.218Z,3.50
2019-01-02T12:13:36.597Z,2.73
2019-01-02T12:17:38.998Z,2.90
2019-01-02T12:21:41.406Z,4.30
2019-01-02T12:25:43.766Z,3.13
2019-01-02T12:29:46.202Z,3.30
2019-01-02T12:33:48.545Z,3.07
2019-01-02T12:37:50.937Z,4.57
2019-01-02T12:41:53.297Z,2.63
2019-01-02T12:45:55.978Z,4.63
2019-01-02T12:49:58.346Z,2.83
2019-01-02T12:54:00.722Z,2.27
2019-01-02T12:58:03.143Z,3.17
2019-01-02T13:02:35.042Z,1.93
2019-01-02T13:08:54.371Z,2.10
2019-01-02T13:13:09.207Z,3.07
2019-01-02T13:17:22.654Z,2.53
2019-01-02T13:22:08.021Z,2.43
2019-01-02T13:26:24.240Z,2.83
2019-01-02T13:32:43.138Z,2.60
2019-01-02T13:37:56.120Z,2.40
2019-01-02T13:42:22.895Z,2.23
2019-01-02T13:46:38.029Z,3.30
2019-01-02T13:50:47.696Z,2.83
2019-01-02T13:54:50.956Z,3.00
2019-01-02T13:58:53.302Z,2.53
2019-01-02T14:02:55.630Z,2.60
2019-01-02T14:06:57.951Z,3.67
2019-01-02T14:11:00.281Z,3.47
2019-01-02T14:15:02.724Z,2.47
2019-01-02T14:19:05.154Z,2.30
2019-01-02T14:23:07.451Z,2.03
2019-01-02T14:27:09.790Z,1.53
2019-01-02T14:31:12.661Z,2.27
2019-01-02T14:35:15.002Z,2.20
2019-01-02T14:39:17.360Z,3.63
2019-01-02T14:43:19.705Z,2.47
2019-01-02T14:47:22.086Z,2.50
2019-01-02T14:51:24.437Z,2.90
2019-01-02T14:55:26.835Z,2.80
2019-01-02T14:59:29.226Z,2.10
2019-01-02T15:03:31.558Z,2.27
2019-01-02T15:07:33.994Z,2.27
2019-01-02T15:11:36.945Z,2.13
2019-01-02T15:15:39.316Z,5.73
2019-01-02T15:19:41.645Z,2.03
2019-01-02T15:23:44.038Z,2.97
2019-01-02T15:27:46.358Z,2.07
2019-01-02T15:31:48.944Z,2.80
2019-01-02T15:35:51.350Z,2.67
2019-01-02T15:39:53.810Z,2.70
2019-01-02T15:43:56.154Z,2.93
2019-01-02T15:47:58.469Z,2.50
2019-01-02T15:52:01.363Z,2.07
2019-01-02T15:56:03.785Z,2.03
2019-01-02T16:00:09.250Z,3.47
2019-01-02T16:08:36.679Z,3.30
2019-01-02T16:12:39.016Z,2.97
2019-01-02T16:16:42.415Z,4.63
2019-01-02T16:20:43.758Z,3.20
2019-01-02T16:24:46.119Z,3.30
2019-01-02T16:28:48.410Z,5.50
2019-01-02T16:32:50.711Z,2.87
2019-01-02T16:36:53.099Z,3.43
2019-01-02T16:40:55.419Z,3.83
2019-01-02T16:44:58.408Z,2.40
2019-01-02T16:49:00.781Z,2.67
2019-01-02T16:53:03.865Z,1.93
2019-01-02T16:57:06.241Z,2.03
2019-01-02T17:01:10.150Z,3.17
2019-01-02T17:05:12.563Z,2.30
2019-01-02T17:09:14.996Z,3.37
2019-01-02T17:13:17.397Z,2.80
2019-01-02T17:21:44.888Z,2.80
2019-01-02T17:25:47.206Z,2.33
2019-01-02T17:29:49.559Z,3.00
2019-01-02T17:33:52.569Z,2.37
2019-01-02T17:37:54.986Z,4.93
2019-01-02T17:41:57.412Z,2.40
2019-01-02T17:50:25.163Z,2.70
2019-01-02T17:54:27.618Z,2.90
2019-01-02T17:58:29.968Z,2.77
2019-01-02T18:02:32.380Z,4.37
2019-01-02T18:06:34.758Z,2.67
2019-01-02T18:10:38.299Z,2.87
2019-01-02T18:14:40.591Z,2.57
2019-01-02T18:18:43.486Z,2.67
2019-01-02T18:22:45.949Z,2.37
2019-01-02T18:26:48.337Z,3.23
2019-01-02T18:30:50.715Z,2.50
2019-01-02T18:34:53.233Z,3.57
2019-01-02T18:38:55.697Z,2.80
2019-01-02T18:42:58.076Z,2.73
2019-01-02T18:47:00.524Z,2.50
2019-01-02T18:51:04.176Z,2.73
2019-01-02T18:55:06.743Z,2.53
2019-01-02T18:59:09.071Z,3.47
2019-01-02T19:03:11.434Z,2.92
2019-01-02T19:07:14.763Z,2.40
2019-01-02T19:11:16.111Z,3.07
2019-01-02T19:15:18.463Z,2.63
2019-01-02T19:19:20.868Z,2.50
2019-01-02T19:23:23.378Z,3.73
2019-01-02T19:27:25.778Z,3.20
2019-01-02T19:31:28.179Z,2.73
2019-01-02T19:35:30.655Z,4.20
2019-01-02T19:39:33.838Z,2.80
2019-01-02T19:43:36.159Z,6.33
2019-01-02T19:47:38.660Z,3.50
2019-01-02T19:51:41.047Z,3.93
2019-01-02T19:55:43.523Z,3.93
2019-01-02T19:59:45.903Z,3.40
2019-01-02T20:03:48.342Z,6.87
2019-01-02T20:07:50.707Z,3.30
2019-01-02T20:11:53.032Z,6.87
2019-01-02T20:15:56.410Z,5.07
2019-01-02T20:19:59.014Z,9.53
2019-01-02T20:24:01.547Z,4.10
2019-01-02T20:28:04.037Z,8.10
2019-01-02T20:32:06.444Z,2.93
2019-01-02T20:36:08.874Z,3.33
2019-01-02T20:40:11.285Z,3.20
2019-01-02T20:44:13.823Z,6.87
2019-01-02T20:48:16.287Z,3.23
2019-01-02T20:52:18.679Z,6.23
2019-01-02T20:56:21.073Z,3.73
2019-01-02T21:00:23.515Z,2.93
2019-01-02T21:04:25.896Z,3.37
2019-01-02T21:08:28.270Z,3.20
2019-01-02T21:12:30.704Z,2.17
2019-01-02T21:16:33.106Z,2.70
2019-01-02T21:20:35.566Z,3.37
2019-01-02T21:24:38.000Z,3.00
2019-01-02T21:28:40.373Z,2.67
2019-01-02T21:32:42.809Z,3.63
2019-01-02T21:36:45.174Z,6.70
2019-01-02T21:40:48.938Z,3.47
2019-01-02T21:44:51.336Z,3.70
2019-01-02T21:48:53.683Z,4.23
2019-01-02T21:52:56.053Z,5.10
2019-01-02T21:56:58.447Z,5.97
2019-01-02T22:01:00.870Z,4.67
2019-01-02T22:05:03.407Z,4.10
2019-01-02T22:09:05.997Z,5.10
2019-01-02T22:13:08.368Z,5.43
2019-01-02T22:17:10.792Z,9.47
2019-01-02T22:25:40.443Z,3.60
2019-01-02T22:29:42.868Z,2.40
2019-01-02T22:33:45.208Z,2.60
2019-01-02T22:37:47.577Z,2.90
2019-01-02T22:41:49.948Z,2.90
2019-01-02T22:45:52.360Z,2.30
2019-01-02T22:49:54.792Z,2.63
2019-01-02T22:53:57.121Z,2.30
2019-01-02T22:57:59.456Z,2.73
2019-01-02T23:02:09.167Z,2.73
2019-01-02T23:06:19.412Z,3.10
2019-01-02T23:10:29.226Z,5.50
2019-01-02T23:14:36.112Z,4.77
2019-01-02T23:19:47.630Z,3.40
2019-01-02T23:23:55.672Z,4.37
2019-01-02T23:29:01.856Z,4.07
2019-01-02T23:33:15.650Z,2.90
2019-01-02T23:39:32.983Z,2.63
2019-01-02T23:45:46.421Z,4.13
2019-01-02T23:52:01.127Z,4.50
2019-01-02T23:56:08.022Z,3.47
